Terminal Aerodrome Forecast
Issued by NWS

Home | Current Version | Previous Version | Text Only | Print | Product List | Glossary On
Versions: 1 2 3 4 5 6 7 8 9 10 11 12 13 14 15 16 17 18 19 20 21 22
000
FTUS45 KBOU 150001 AAA
TAFBJC
TAF AMD
KBJC 150001Z 1500/1524 36004KT P6SM BKN070
     FM150800 VRB03KT P6SM SCT020 OVC040
     FM151100 VRB03KT 4SM BR VCSH BKN020 OVC040 PROB30 1513/1517 2SM
      -SHSN BR OVC020
     FM151800 09006KT 4SM -SN BR BKN020 OVC040
     FM152100 09008KT 2SM -SN BR BKN012 OVC020=

USA.gov is the U.S. government's official web portal to all federal, state and local government web resources and services.